Terminal Aerodrome Forecast
Issued by NWS

Home | Current Version | Previous Version | Graphics & Text | Print | Product List | Glossary On
Versions: 1 2 3 4 5 6 7 8 9 10 11 12 13 14 15 16 17 18 19 20 21 22 23 24 25 26 27 28 29 30 31 32 33
000
FTUS43 KLOT 280300 AAB
TAFORD
TAF AMD
KORD 280305Z 2803/2906 35012KT P6SM SCT025 BKN035
      TEMPO 2803/2805 02012G18KT BKN023
     FM281500 02012G20KT P6SM SCT050
     FM290200 VRB05KT P6SM SCT050=

USA.gov is the U.S. government's official web portal to all federal, state and local government web resources and services.